BEL2TH LIRF-EBBR
Flight info
| Callsign | BEL2TH |
|---|---|
| Flight time | 1h 49m |
| Altitude | 38000 |
| Route | NEMBO DCT GOVGO DCT AOSTA DCT ORSUD DCT MOLUS DCT GILIR DCT PENDU DCT IXILU DCT GIVOR/N0434F320 DCT SORAL DCT IBERA N853 DIK Y37 BATTY |
| Aircraft | A319/M-SDE3FGHIRWY/LB1 |
Departure
| Time | 2026-05-08 03:09 |
|---|---|
| Airport | Rome–Fiumicino Leonardo da Vinci International Airport (LIRF) |
Arrival
| Time | 2026-05-08 04:58 |
|---|---|
| Airport | Brussels Airport (EBBR) |
| Time | Latitude | Longitude | Altitude | Speed | Heading |
|---|---|---|---|---|---|
| 2026-05-08 02:37 | 41.79769 | 12.25668 | 15 ft | 0 kts | 296° |
| 2026-05-08 03:01 | 41.79768 | 12.25670 | 15 ft | 2 kts | 296° |
| 2026-05-08 03:01 | 41.79755 | 12.25700 | 17 ft | 4 kts | 309° |
| 2026-05-08 03:01 | 41.79736 | 12.25720 | 15 ft | 4 kts | 6° |
| 2026-05-08 03:02 | 41.79728 | 12.25719 | 15 ft | 0 kts | 25° |
| 2026-05-08 03:04 | 41.79732 | 12.25721 | 15 ft | 2 kts | 25° |
| 2026-05-08 03:04 | 41.79758 | 12.25738 | 17 ft | 6 kts | 25° |
| 2026-05-08 03:05 | 41.79808 | 12.25769 | 16 ft | 10 kts | 25° |
| 2026-05-08 03:05 | 41.79869 | 12.25815 | 15 ft | 11 kts | 34° |
| 2026-05-08 03:05 | 41.79945 | 12.25867 | 17 ft | 14 kts | 25° |
| 2026-05-08 03:05 | 41.80036 | 12.25923 | 17 ft | 15 kts | 25° |
| 2026-05-08 03:06 | 41.80133 | 12.25983 | 17 ft | 16 kts | 25° |
| 2026-05-08 03:06 | 41.80233 | 12.26045 | 15 ft | 12 kts | 25° |
| 2026-05-08 03:06 | 41.80311 | 12.26093 | 16 ft | 13 kts | 25° |
| 2026-05-08 03:06 | 41.80394 | 12.26145 | 17 ft | 14 kts | 25° |
| 2026-05-08 03:07 | 41.80488 | 12.26178 | 15 ft | 14 kts | 354° |
| 2026-05-08 03:07 | 41.80588 | 12.26139 | 15 ft | 16 kts | 343° |
| 2026-05-08 03:07 | 41.80689 | 12.26097 | 17 ft | 11 kts | 342° |
| 2026-05-08 03:07 | 41.80708 | 12.26024 | 18 ft | 10 kts | 258° |
| 2026-05-08 03:08 | 41.80681 | 12.25921 | 17 ft | 14 kts | 250° |
| 2026-05-08 03:08 | 41.80578 | 12.25542 | 16 ft | 83 kts | 250° |
| 2026-05-08 03:08 | 41.80295 | 12.24512 | 15 ft | 150 kts | 250° |
| 2026-05-08 03:08 | 41.79909 | 12.23074 | 460 ft | 164 kts | 251° |
| 2026-05-08 03:09 | 41.79510 | 12.21653 | 1194 ft | 163 kts | 250° |
| 2026-05-08 03:09 | 41.79300 | 12.20171 | 1859 ft | 162 kts | 270° |
| 2026-05-08 03:09 | 41.79268 | 12.18665 | 2528 ft | 162 kts | 269° |
| 2026-05-08 03:09 | 41.79230 | 12.17160 | 3167 ft | 163 kts | 269° |
| 2026-05-08 03:10 | 41.79188 | 12.15547 | 3513 ft | 185 kts | 269° |
| 2026-05-08 03:10 | 41.79139 | 12.13714 | 3823 ft | 210 kts | 268° |
| 2026-05-08 03:10 | 41.79085 | 12.11652 | 4239 ft | 234 kts | 268° |
| 2026-05-08 03:10 | 41.79026 | 12.09354 | 4730 ft | 259 kts | 269° |
| 2026-05-08 03:11 | 41.79001 | 12.06869 | 5463 ft | 271 kts | 270° |
| 2026-05-08 03:11 | 41.78999 | 12.04330 | 6429 ft | 275 kts | 270° |
| 2026-05-08 03:11 | 41.79003 | 12.01751 | 7350 ft | 279 kts | 270° |
| 2026-05-08 03:11 | 41.79007 | 11.99131 | 8270 ft | 283 kts | 270° |
| 2026-05-08 03:12 | 41.79009 | 11.96473 | 9304 ft | 288 kts | 270° |
| 2026-05-08 03:12 | 41.79008 | 11.93769 | 10167 ft | 294 kts | 270° |
| 2026-05-08 03:12 | 41.79002 | 11.90877 | 10516 ft | 319 kts | 270° |
| 2026-05-08 03:12 | 41.78989 | 11.87811 | 10943 ft | 336 kts | 269° |
| 2026-05-08 03:13 | 41.78974 | 11.84637 | 11647 ft | 344 kts | 270° |
| 2026-05-08 03:13 | 41.78962 | 11.81407 | 12422 ft | 349 kts | 270° |
| 2026-05-08 03:13 | 41.78949 | 11.78128 | 13200 ft | 354 kts | 270° |
| 2026-05-08 03:13 | 41.78936 | 11.74807 | 13932 ft | 359 kts | 269° |
| 2026-05-08 03:14 | 41.78922 | 11.71438 | 14605 ft | 363 kts | 269° |
| 2026-05-08 03:14 | 41.78905 | 11.68037 | 15317 ft | 366 kts | 269° |
| 2026-05-08 03:14 | 41.78889 | 11.64610 | 16053 ft | 369 kts | 268° |
| 2026-05-08 03:14 | 41.78879 | 11.61157 | 16769 ft | 372 kts | 270° |
| 2026-05-08 03:15 | 41.79192 | 11.57700 | 17473 ft | 377 kts | 282° |
| 2026-05-08 03:15 | 41.80052 | 11.54359 | 18183 ft | 382 kts | 294° |
| 2026-05-08 03:15 | 41.81443 | 11.51298 | 18775 ft | 388 kts | 306° |
| 2026-05-08 03:15 | 41.83218 | 11.48559 | 19404 ft | 391 kts | 310° |
| 2026-05-08 03:16 | 41.85023 | 11.45826 | 20026 ft | 393 kts | 309° |
| 2026-05-08 03:16 | 41.86834 | 11.43064 | 20648 ft | 396 kts | 309° |
| 2026-05-08 03:16 | 41.88653 | 11.40273 | 21254 ft | 399 kts | 309° |
| 2026-05-08 03:16 | 41.90484 | 11.37457 | 21859 ft | 402 kts | 308° |
| 2026-05-08 03:17 | 41.92328 | 11.34622 | 22461 ft | 405 kts | 308° |
| 2026-05-08 03:17 | 41.94185 | 11.31766 | 23053 ft | 408 kts | 308° |
| 2026-05-08 03:17 | 41.96057 | 11.28888 | 23584 ft | 411 kts | 308° |
| 2026-05-08 03:17 | 41.97943 | 11.25988 | 24058 ft | 413 kts | 308° |
| 2026-05-08 03:18 | 41.99839 | 11.23076 | 24526 ft | 415 kts | 308° |
| 2026-05-08 03:18 | 42.01749 | 11.20143 | 24992 ft | 418 kts | 308° |
| 2026-05-08 03:18 | 42.03662 | 11.17195 | 25446 ft | 420 kts | 307° |
| 2026-05-08 03:18 | 42.05586 | 11.14226 | 25898 ft | 422 kts | 307° |
| 2026-05-08 03:19 | 42.07518 | 11.11239 | 26343 ft | 424 kts | 307° |
| 2026-05-08 03:19 | 42.09453 | 11.08242 | 26802 ft | 426 kts | 307° |
| 2026-05-08 03:19 | 42.11403 | 11.05223 | 27235 ft | 428 kts | 307° |
| 2026-05-08 03:19 | 42.13360 | 11.02191 | 27676 ft | 430 kts | 307° |
| 2026-05-08 03:20 | 42.15328 | 10.99139 | 28111 ft | 432 kts | 307° |
| 2026-05-08 03:20 | 42.17330 | 10.96031 | 28545 ft | 435 kts | 307° |
| 2026-05-08 03:20 | 42.19320 | 10.92947 | 28966 ft | 437 kts | 307° |
| 2026-05-08 03:20 | 42.21314 | 10.89849 | 29376 ft | 439 kts | 307° |
| 2026-05-08 03:21 | 42.23316 | 10.86728 | 29770 ft | 441 kts | 307° |
| 2026-05-08 03:21 | 42.25328 | 10.83587 | 30131 ft | 443 kts | 306° |
| 2026-05-08 03:21 | 42.27467 | 10.80561 | 30450 ft | 450 kts | 314° |
| 2026-05-08 03:21 | 42.29967 | 10.77972 | 30761 ft | 457 kts | 323° |
| 2026-05-08 03:22 | 42.32794 | 10.75929 | 31060 ft | 465 kts | 333° |
| 2026-05-08 03:22 | 42.35843 | 10.74380 | 31358 ft | 470 kts | 336° |
| 2026-05-08 03:22 | 42.38919 | 10.72874 | 31671 ft | 471 kts | 336° |
| 2026-05-08 03:22 | 42.42001 | 10.71359 | 32097 ft | 470 kts | 335° |
| 2026-05-08 03:23 | 42.45071 | 10.69839 | 32531 ft | 469 kts | 335° |
| 2026-05-08 03:23 | 42.48134 | 10.68316 | 32953 ft | 469 kts | 335° |
| 2026-05-08 03:23 | 42.51195 | 10.66796 | 33379 ft | 468 kts | 335° |
| 2026-05-08 03:23 | 42.54249 | 10.65280 | 33799 ft | 468 kts | 335° |
| 2026-05-08 03:24 | 42.57306 | 10.63760 | 34190 ft | 467 kts | 335° |
| 2026-05-08 03:24 | 42.60350 | 10.62247 | 34597 ft | 466 kts | 335° |
| 2026-05-08 03:24 | 42.63389 | 10.60738 | 35016 ft | 464 kts | 335° |
| 2026-05-08 03:24 | 42.66412 | 10.59237 | 35425 ft | 461 kts | 335° |
| 2026-05-08 03:25 | 42.69418 | 10.57740 | 35824 ft | 459 kts | 335° |
| 2026-05-08 03:25 | 42.72408 | 10.56248 | 36217 ft | 457 kts | 335° |
| 2026-05-08 03:25 | 42.75386 | 10.54759 | 36598 ft | 455 kts | 335° |
| 2026-05-08 03:25 | 42.78345 | 10.53274 | 36965 ft | 453 kts | 335° |
| 2026-05-08 03:26 | 42.81293 | 10.51794 | 37322 ft | 451 kts | 335° |
| 2026-05-08 03:26 | 42.84233 | 10.50316 | 37666 ft | 449 kts | 335° |
| 2026-05-08 03:26 | 42.87160 | 10.48845 | 37924 ft | 448 kts | 335° |
| 2026-05-08 03:27 | 42.92994 | 10.45908 | 37967 ft | 446 kts | 335° |
| 2026-05-08 03:27 | 42.98801 | 10.42973 | 37967 ft | 445 kts | 335° |
| 2026-05-08 03:28 | 43.04616 | 10.40035 | 37970 ft | 445 kts | 335° |
| 2026-05-08 03:28 | 43.10429 | 10.37099 | 37971 ft | 445 kts | 335° |
| 2026-05-08 03:29 | 43.16244 | 10.34043 | 37973 ft | 442 kts | 329° |
| 2026-05-08 03:29 | 43.21299 | 10.29468 | 37984 ft | 433 kts | 316° |
| 2026-05-08 03:30 | 43.28416 | 10.21793 | 37983 ft | 434 kts | 317° |
| 2026-05-08 03:31 | 43.37910 | 10.11527 | 37988 ft | 435 kts | 317° |
| 2026-05-08 03:32 | 43.45034 | 10.03794 | 37985 ft | 435 kts | 317° |
| 2026-05-08 03:32 | 43.49112 | 9.99359 | 37985 ft | 435 kts | 317° |
| 2026-05-08 03:33 | 43.53860 | 9.94178 | 37990 ft | 436 kts | 317° |
| 2026-05-08 03:33 | 43.58610 | 9.88981 | 37994 ft | 436 kts | 317° |
| 2026-05-08 03:34 | 43.63365 | 9.83783 | 38002 ft | 436 kts | 317° |
| 2026-05-08 03:34 | 43.68116 | 9.78568 | 38000 ft | 436 kts | 316° |
| 2026-05-08 03:35 | 43.72866 | 9.73335 | 38004 ft | 436 kts | 316° |
| 2026-05-08 03:35 | 43.77608 | 9.68094 | 37999 ft | 437 kts | 316° |
| 2026-05-08 03:36 | 43.82355 | 9.62852 | 38004 ft | 437 kts | 316° |
| 2026-05-08 03:36 | 43.87103 | 9.57602 | 37999 ft | 437 kts | 316° |
| 2026-05-08 03:37 | 43.91850 | 9.52334 | 38004 ft | 437 kts | 316° |
| 2026-05-08 03:37 | 43.96592 | 9.47061 | 38005 ft | 437 kts | 316° |
| 2026-05-08 03:38 | 44.01337 | 9.41779 | 38005 ft | 437 kts | 316° |
| 2026-05-08 03:38 | 44.06081 | 9.36489 | 38008 ft | 437 kts | 316° |
| 2026-05-08 03:39 | 44.10823 | 9.31184 | 38006 ft | 438 kts | 316° |
| 2026-05-08 03:39 | 44.15565 | 9.25860 | 38006 ft | 438 kts | 316° |
| 2026-05-08 03:40 | 44.20312 | 9.20536 | 38005 ft | 438 kts | 316° |
| 2026-05-08 03:40 | 44.25091 | 9.15163 | 38000 ft | 439 kts | 316° |
| 2026-05-08 03:41 | 44.29840 | 9.09809 | 38003 ft | 439 kts | 316° |
| 2026-05-08 03:41 | 44.34580 | 9.04438 | 38000 ft | 439 kts | 316° |
| 2026-05-08 03:42 | 44.39319 | 8.99069 | 37992 ft | 439 kts | 316° |
| 2026-05-08 03:42 | 44.44056 | 8.93688 | 37992 ft | 439 kts | 316° |
| 2026-05-08 03:43 | 44.48792 | 8.88300 | 37994 ft | 439 kts | 316° |
| 2026-05-08 03:43 | 44.53524 | 8.82899 | 38007 ft | 439 kts | 316° |
| 2026-05-08 03:44 | 44.58254 | 8.77491 | 38005 ft | 439 kts | 316° |
| 2026-05-08 03:44 | 44.62981 | 8.72076 | 38020 ft | 439 kts | 316° |
| 2026-05-08 03:45 | 44.67707 | 8.66651 | 38034 ft | 439 kts | 316° |
| 2026-05-08 03:45 | 44.72433 | 8.61207 | 38050 ft | 439 kts | 316° |
| 2026-05-08 03:46 | 44.77160 | 8.55768 | 38057 ft | 439 kts | 316° |
| 2026-05-08 03:46 | 44.81884 | 8.50313 | 38050 ft | 439 kts | 316° |
| 2026-05-08 03:47 | 44.86594 | 8.44847 | 38056 ft | 439 kts | 316° |
| 2026-05-08 03:47 | 44.91307 | 8.39386 | 38054 ft | 438 kts | 316° |
| 2026-05-08 03:48 | 44.96018 | 8.33912 | 38049 ft | 438 kts | 316° |
| 2026-05-08 03:48 | 45.00717 | 8.28429 | 38043 ft | 438 kts | 316° |
| 2026-05-08 03:49 | 45.05446 | 8.22908 | 38040 ft | 438 kts | 316° |
| 2026-05-08 03:49 | 45.10140 | 8.17413 | 38042 ft | 438 kts | 316° |
| 2026-05-08 03:50 | 45.14825 | 8.11907 | 38040 ft | 437 kts | 316° |
| 2026-05-08 03:50 | 45.19506 | 8.06401 | 38037 ft | 437 kts | 316° |
| 2026-05-08 03:51 | 45.24185 | 8.00891 | 38040 ft | 437 kts | 316° |
| 2026-05-08 03:51 | 45.28861 | 7.95371 | 38042 ft | 437 kts | 316° |
| 2026-05-08 03:52 | 45.33534 | 7.89841 | 38041 ft | 437 kts | 316° |
| 2026-05-08 03:52 | 45.38208 | 7.84306 | 38047 ft | 437 kts | 316° |
| 2026-05-08 03:53 | 45.42880 | 7.78751 | 38051 ft | 438 kts | 316° |
| 2026-05-08 03:53 | 45.47551 | 7.73183 | 38053 ft | 438 kts | 316° |
| 2026-05-08 03:54 | 45.52216 | 7.67613 | 38060 ft | 438 kts | 316° |
| 2026-05-08 03:54 | 45.56879 | 7.62026 | 38074 ft | 438 kts | 316° |
| 2026-05-08 03:55 | 45.61537 | 7.56432 | 38072 ft | 438 kts | 316° |
| 2026-05-08 03:55 | 45.66200 | 7.50829 | 38078 ft | 438 kts | 316° |
| 2026-05-08 03:56 | 45.70887 | 7.45176 | 38088 ft | 438 kts | 315° |
| 2026-05-08 03:56 | 45.75542 | 7.39550 | 38092 ft | 438 kts | 315° |
| 2026-05-08 03:57 | 45.80207 | 7.33936 | 38092 ft | 439 kts | 317° |
| 2026-05-08 03:57 | 45.85126 | 7.28715 | 38095 ft | 442 kts | 321° |
| 2026-05-08 03:58 | 45.90215 | 7.23750 | 38086 ft | 442 kts | 321° |
| 2026-05-08 03:58 | 45.95268 | 7.18739 | 38087 ft | 441 kts | 321° |
| 2026-05-08 03:59 | 46.00271 | 7.13620 | 38086 ft | 441 kts | 320° |
| 2026-05-08 03:59 | 46.05258 | 7.08479 | 38083 ft | 441 kts | 320° |
| 2026-05-08 04:00 | 46.10252 | 7.03338 | 38078 ft | 441 kts | 320° |
| 2026-05-08 04:00 | 46.15252 | 6.98190 | 38078 ft | 442 kts | 320° |
| 2026-05-08 04:01 | 46.20253 | 6.93024 | 38073 ft | 442 kts | 320° |
| 2026-05-08 04:01 | 46.25258 | 6.87849 | 38067 ft | 443 kts | 320° |
| 2026-05-08 04:02 | 46.30267 | 6.82658 | 38067 ft | 443 kts | 320° |
| 2026-05-08 04:02 | 46.35278 | 6.77453 | 38048 ft | 443 kts | 320° |
| 2026-05-08 04:03 | 46.40286 | 6.72234 | 38051 ft | 444 kts | 320° |
| 2026-05-08 04:03 | 46.47319 | 6.65885 | 38074 ft | 449 kts | 330° |
| 2026-05-08 04:04 | 46.52952 | 6.61934 | 38085 ft | 450 kts | 330° |
| 2026-05-08 04:04 | 46.58585 | 6.57965 | 38077 ft | 450 kts | 330° |
| 2026-05-08 04:05 | 46.64212 | 6.53981 | 38084 ft | 450 kts | 330° |
| 2026-05-08 04:05 | 46.69835 | 6.49997 | 38085 ft | 450 kts | 330° |
| 2026-05-08 04:06 | 46.75467 | 6.46007 | 38089 ft | 450 kts | 331° |
| 2026-05-08 04:06 | 46.81094 | 6.42014 | 38086 ft | 450 kts | 331° |
| 2026-05-08 04:07 | 46.86723 | 6.38000 | 38094 ft | 450 kts | 330° |
| 2026-05-08 04:07 | 46.92344 | 6.33966 | 38093 ft | 450 kts | 330° |
| 2026-05-08 04:08 | 46.97962 | 6.29925 | 38086 ft | 450 kts | 331° |
| 2026-05-08 04:08 | 47.03628 | 6.25858 | 38076 ft | 450 kts | 331° |
| 2026-05-08 04:09 | 47.09258 | 6.21823 | 38092 ft | 451 kts | 331° |
| 2026-05-08 04:09 | 47.14882 | 6.17766 | 38082 ft | 451 kts | 331° |
| 2026-05-08 04:10 | 47.20514 | 6.13698 | 38079 ft | 451 kts | 331° |
| 2026-05-08 04:10 | 47.26149 | 6.09618 | 38083 ft | 451 kts | 331° |
| 2026-05-08 04:11 | 47.31800 | 6.05573 | 38081 ft | 453 kts | 335° |
| 2026-05-08 04:11 | 47.37942 | 6.03429 | 38081 ft | 458 kts | 354° |
| 2026-05-08 04:12 | 47.44335 | 6.03485 | 38080 ft | 460 kts | 359° |
| 2026-05-08 04:12 | 47.50731 | 6.03626 | 38076 ft | 460 kts | 359° |
| 2026-05-08 04:13 | 47.57132 | 6.03764 | 38083 ft | 460 kts | 359° |
| 2026-05-08 04:13 | 47.63531 | 6.03901 | 38080 ft | 460 kts | 359° |
| 2026-05-08 04:14 | 47.69930 | 6.04041 | 38085 ft | 459 kts | 359° |
| 2026-05-08 04:14 | 47.76287 | 6.04988 | 38080 ft | 462 kts | 12° |
| 2026-05-08 04:15 | 47.82524 | 6.07338 | 38082 ft | 462 kts | 12° |
| 2026-05-08 04:15 | 47.88757 | 6.09671 | 38081 ft | 462 kts | 12° |
| 2026-05-08 04:16 | 47.94985 | 6.12003 | 38087 ft | 462 kts | 12° |
| 2026-05-08 04:16 | 48.01259 | 6.14373 | 38082 ft | 462 kts | 12° |
| 2026-05-08 04:17 | 48.07488 | 6.16741 | 38088 ft | 462 kts | 12° |
| 2026-05-08 04:17 | 48.13709 | 6.19114 | 38080 ft | 461 kts | 12° |
| 2026-05-08 04:18 | 48.19929 | 6.21477 | 38090 ft | 461 kts | 12° |
| 2026-05-08 04:18 | 48.26148 | 6.23839 | 38078 ft | 461 kts | 12° |
| 2026-05-08 04:19 | 48.32362 | 6.26215 | 38076 ft | 461 kts | 12° |
| 2026-05-08 04:19 | 48.38573 | 6.28595 | 38079 ft | 460 kts | 12° |
| 2026-05-08 04:20 | 48.44783 | 6.30989 | 38084 ft | 460 kts | 12° |
| 2026-05-08 04:20 | 48.50990 | 6.33387 | 38101 ft | 460 kts | 12° |
| 2026-05-08 04:21 | 48.57195 | 6.35789 | 38105 ft | 460 kts | 12° |
| 2026-05-08 04:21 | 48.63400 | 6.38204 | 38103 ft | 460 kts | 12° |
| 2026-05-08 04:22 | 48.69703 | 6.39536 | 38105 ft | 457 kts | 1° |
| 2026-05-08 04:22 | 48.76053 | 6.40157 | 38104 ft | 457 kts | 1° |
| 2026-05-08 04:23 | 48.82403 | 6.40799 | 38107 ft | 457 kts | 1° |
| 2026-05-08 04:23 | 48.88752 | 6.41449 | 38109 ft | 457 kts | 2° |
| 2026-05-08 04:24 | 48.95098 | 6.42104 | 38104 ft | 457 kts | 1° |
| 2026-05-08 04:24 | 49.01487 | 6.42766 | 38105 ft | 457 kts | 1° |
| 2026-05-08 04:25 | 49.07834 | 6.43412 | 38108 ft | 457 kts | 1° |
| 2026-05-08 04:25 | 49.14110 | 6.42651 | 38105 ft | 451 kts | 343° |
| 2026-05-08 04:26 | 49.20151 | 6.40152 | 38104 ft | 450 kts | 342° |
| 2026-05-08 04:26 | 49.26200 | 6.37670 | 38098 ft | 450 kts | 342° |
| 2026-05-08 04:27 | 49.32255 | 6.35196 | 38102 ft | 450 kts | 342° |
| 2026-05-08 04:27 | 49.38305 | 6.32712 | 38100 ft | 450 kts | 342° |
| 2026-05-08 04:28 | 49.44355 | 6.30205 | 38103 ft | 450 kts | 342° |
| 2026-05-08 04:28 | 49.50402 | 6.27681 | 38100 ft | 450 kts | 342° |
| 2026-05-08 04:29 | 49.56458 | 6.25188 | 38104 ft | 451 kts | 343° |
| 2026-05-08 04:29 | 49.62515 | 6.22714 | 38102 ft | 451 kts | 343° |
| 2026-05-08 04:30 | 49.68581 | 6.20233 | 38105 ft | 451 kts | 343° |
| 2026-05-08 04:30 | 49.74643 | 6.17735 | 38101 ft | 451 kts | 343° |
| 2026-05-08 04:31 | 49.80704 | 6.15236 | 38106 ft | 451 kts | 343° |
| 2026-05-08 04:31 | 49.86771 | 6.12734 | 38107 ft | 451 kts | 343° |
| 2026-05-08 04:32 | 49.92920 | 6.10453 | 38108 ft | 452 kts | 345° |
| 2026-05-08 04:32 | 49.99066 | 6.08378 | 38117 ft | 452 kts | 346° |
| 2026-05-08 04:33 | 50.05214 | 6.06283 | 38115 ft | 452 kts | 345° |
| 2026-05-08 04:33 | 50.11347 | 6.04118 | 38117 ft | 452 kts | 345° |
| 2026-05-08 04:34 | 50.17479 | 6.01925 | 37918 ft | 452 kts | 345° |
| 2026-05-08 04:34 | 50.20541 | 6.00833 | 37641 ft | 451 kts | 345° |
| 2026-05-08 04:34 | 50.23597 | 5.99739 | 37381 ft | 450 kts | 345° |
| 2026-05-08 04:35 | 50.26647 | 5.98647 | 36751 ft | 452 kts | 345° |
| 2026-05-08 04:35 | 50.29725 | 5.97546 | 35923 ft | 455 kts | 345° |
| 2026-05-08 04:35 | 50.32823 | 5.96440 | 35060 ft | 458 kts | 345° |
| 2026-05-08 04:35 | 50.35945 | 5.95322 | 34133 ft | 463 kts | 346° |
| 2026-05-08 04:36 | 50.39080 | 5.94200 | 33418 ft | 459 kts | 346° |
| 2026-05-08 04:36 | 50.42181 | 5.93093 | 32770 ft | 454 kts | 346° |
| 2026-05-08 04:36 | 50.45240 | 5.91999 | 32167 ft | 448 kts | 346° |
| 2026-05-08 04:36 | 50.48265 | 5.90912 | 31564 ft | 443 kts | 346° |
| 2026-05-08 04:37 | 50.51249 | 5.89840 | 30984 ft | 437 kts | 346° |
| 2026-05-08 04:37 | 50.54196 | 5.88773 | 30405 ft | 432 kts | 346° |
| 2026-05-08 04:37 | 50.56134 | 5.88068 | 30003 ft | 429 kts | 346° |
| 2026-05-08 04:37 | 50.59054 | 5.86954 | 29401 ft | 423 kts | 342° |
| 2026-05-08 04:38 | 50.61742 | 5.85223 | 28859 ft | 414 kts | 330° |
| 2026-05-08 04:38 | 50.64126 | 5.82753 | 28321 ft | 407 kts | 320° |
| 2026-05-08 04:38 | 50.66135 | 5.79673 | 27803 ft | 400 kts | 309° |
| 2026-05-08 04:38 | 50.67718 | 5.76121 | 27293 ft | 394 kts | 298° |
| 2026-05-08 04:39 | 50.68964 | 5.72303 | 26815 ft | 389 kts | 296° |
| 2026-05-08 04:39 | 50.70177 | 5.68519 | 26327 ft | 385 kts | 296° |
| 2026-05-08 04:39 | 50.71379 | 5.64776 | 25867 ft | 381 kts | 296° |
| 2026-05-08 04:39 | 50.72570 | 5.61065 | 25418 ft | 378 kts | 296° |
| 2026-05-08 04:40 | 50.73750 | 5.57383 | 24972 ft | 375 kts | 296° |
| 2026-05-08 04:40 | 50.74919 | 5.53730 | 24533 ft | 372 kts | 296° |
| 2026-05-08 04:40 | 50.76080 | 5.50097 | 24082 ft | 369 kts | 296° |
| 2026-05-08 04:40 | 50.77228 | 5.46493 | 23642 ft | 366 kts | 296° |
| 2026-05-08 04:41 | 50.78366 | 5.42913 | 23143 ft | 363 kts | 296° |
| 2026-05-08 04:41 | 50.79491 | 5.39373 | 22697 ft | 358 kts | 296° |
| 2026-05-08 04:41 | 50.80602 | 5.35875 | 22253 ft | 354 kts | 296° |
| 2026-05-08 04:41 | 50.81700 | 5.32411 | 21808 ft | 351 kts | 296° |
| 2026-05-08 04:42 | 50.82785 | 5.28981 | 21369 ft | 347 kts | 296° |
| 2026-05-08 04:42 | 50.83859 | 5.25578 | 20913 ft | 344 kts | 295° |
| 2026-05-08 04:42 | 50.84919 | 5.22203 | 20470 ft | 342 kts | 295° |
| 2026-05-08 04:42 | 50.85972 | 5.18842 | 20024 ft | 340 kts | 295° |
| 2026-05-08 04:43 | 50.86990 | 5.15463 | 19579 ft | 338 kts | 291° |
| 2026-05-08 04:43 | 50.87649 | 5.11912 | 19135 ft | 336 kts | 280° |
| 2026-05-08 04:43 | 50.87897 | 5.08237 | 18684 ft | 335 kts | 273° |
| 2026-05-08 04:43 | 50.88055 | 5.04568 | 18222 ft | 334 kts | 274° |
| 2026-05-08 04:44 | 50.88218 | 5.00910 | 17754 ft | 332 kts | 274° |
| 2026-05-08 04:44 | 50.88382 | 4.97278 | 17322 ft | 329 kts | 274° |
| 2026-05-08 04:44 | 50.88545 | 4.93676 | 16891 ft | 327 kts | 274° |
| 2026-05-08 04:44 | 50.88705 | 4.90095 | 16472 ft | 325 kts | 274° |
| 2026-05-08 04:45 | 50.88863 | 4.86534 | 16052 ft | 323 kts | 274° |
| 2026-05-08 04:45 | 50.89017 | 4.82992 | 15635 ft | 322 kts | 274° |
| 2026-05-08 04:45 | 50.89200 | 4.78750 | 15137 ft | 320 kts | 274° |
| 2026-05-08 04:45 | 50.89349 | 4.75240 | 14721 ft | 319 kts | 274° |
| 2026-05-08 04:46 | 50.89496 | 4.71736 | 14309 ft | 318 kts | 274° |
| 2026-05-08 04:46 | 50.89640 | 4.68248 | 13888 ft | 317 kts | 274° |
| 2026-05-08 04:46 | 50.89781 | 4.64770 | 13436 ft | 316 kts | 274° |
| 2026-05-08 04:46 | 50.89922 | 4.61312 | 13016 ft | 313 kts | 274° |
| 2026-05-08 04:47 | 50.90063 | 4.57880 | 12594 ft | 311 kts | 274° |
| 2026-05-08 04:47 | 50.90205 | 4.54465 | 12173 ft | 310 kts | 274° |
| 2026-05-08 04:47 | 50.90406 | 4.51086 | 11745 ft | 308 kts | 277° |
| 2026-05-08 04:47 | 50.90691 | 4.47725 | 11318 ft | 307 kts | 278° |
| 2026-05-08 04:48 | 50.91010 | 4.44394 | 10886 ft | 305 kts | 279° |
| 2026-05-08 04:48 | 50.91333 | 4.41073 | 10461 ft | 304 kts | 279° |
| 2026-05-08 04:48 | 50.91645 | 4.37795 | 10240 ft | 296 kts | 278° |
| 2026-05-08 04:48 | 50.91940 | 4.34625 | 10013 ft | 288 kts | 278° |
| 2026-05-08 04:49 | 50.92224 | 4.31514 | 9861 ft | 282 kts | 278° |
| 2026-05-08 04:49 | 50.92494 | 4.28475 | 9549 ft | 277 kts | 278° |
| 2026-05-08 04:49 | 50.92764 | 4.25415 | 9100 ft | 276 kts | 278° |
| 2026-05-08 04:49 | 50.93021 | 4.22452 | 8715 ft | 273 kts | 278° |
| 2026-05-08 04:50 | 50.93266 | 4.19479 | 8322 ft | 270 kts | 275° |
| 2026-05-08 04:50 | 50.93235 | 4.17485 | 8078 ft | 268 kts | 262° |
| 2026-05-08 04:50 | 50.92717 | 4.14682 | 7701 ft | 265 kts | 245° |
| 2026-05-08 04:50 | 50.91703 | 4.12267 | 7304 ft | 264 kts | 227° |
| 2026-05-08 04:51 | 50.90327 | 4.10367 | 6910 ft | 262 kts | 218° |
| 2026-05-08 04:51 | 50.88752 | 4.08970 | 6513 ft | 260 kts | 197° |
| 2026-05-08 04:51 | 50.86974 | 4.08636 | 6102 ft | 257 kts | 174° |
| 2026-05-08 04:51 | 50.85273 | 4.09377 | 5709 ft | 253 kts | 154° |
| 2026-05-08 04:52 | 50.83682 | 4.10534 | 5322 ft | 249 kts | 154° |
| 2026-05-08 04:52 | 50.82159 | 4.11759 | 4942 ft | 242 kts | 142° |
| 2026-05-08 04:52 | 50.81251 | 4.13864 | 4576 ft | 231 kts | 101° |
| 2026-05-08 04:52 | 50.81410 | 4.16308 | 4243 ft | 224 kts | 66° |
| 2026-05-08 04:53 | 50.82052 | 4.18541 | 3912 ft | 222 kts | 64° |
| 2026-05-08 04:53 | 50.82693 | 4.20752 | 3585 ft | 220 kts | 64° |
| 2026-05-08 04:53 | 50.83316 | 4.22906 | 3261 ft | 210 kts | 64° |
| 2026-05-08 04:53 | 50.83907 | 4.24952 | 2962 ft | 200 kts | 64° |
| 2026-05-08 04:54 | 50.84466 | 4.26874 | 2716 ft | 186 kts | 63° |
| 2026-05-08 04:54 | 50.84990 | 4.28672 | 2467 ft | 174 kts | 63° |
| 2026-05-08 04:54 | 50.85479 | 4.30354 | 2247 ft | 162 kts | 63° |
| 2026-05-08 04:54 | 50.85938 | 4.31928 | 2041 ft | 153 kts | 63° |
| 2026-05-08 04:55 | 50.86376 | 4.33431 | 1836 ft | 144 kts | 63° |
| 2026-05-08 04:55 | 50.86785 | 4.34836 | 1641 ft | 137 kts | 63° |
| 2026-05-08 04:55 | 50.87172 | 4.36170 | 1468 ft | 134 kts | 63° |
| 2026-05-08 04:55 | 50.87566 | 4.37519 | 1257 ft | 133 kts | 63° |
| 2026-05-08 04:56 | 50.87947 | 4.38843 | 1054 ft | 132 kts | 64° |
| 2026-05-08 04:56 | 50.88328 | 4.40161 | 878 ft | 132 kts | 64° |
| 2026-05-08 04:56 | 50.88718 | 4.41471 | 737 ft | 131 kts | 64° |
| 2026-05-08 04:56 | 50.89096 | 4.42784 | 593 ft | 131 kts | 65° |
| 2026-05-08 04:57 | 50.89473 | 4.44093 | 418 ft | 131 kts | 65° |
| 2026-05-08 04:57 | 50.89847 | 4.45402 | 269 ft | 130 kts | 66° |
| 2026-05-08 04:57 | 50.90219 | 4.46689 | 193 ft | 121 kts | 65° |
| 2026-05-08 04:57 | 50.90515 | 4.47722 | 194 ft | 79 kts | 65° |
| 2026-05-08 04:58 | 50.90662 | 4.48233 | 189 ft | 18 kts | 76° |
| 2026-05-08 04:58 | 50.90627 | 4.48393 | 187 ft | 12 kts | 120° |
| 2026-05-08 04:58 | 50.90580 | 4.48521 | 194 ft | 14 kts | 120° |
| 2026-05-08 04:58 | 50.90537 | 4.48646 | 185 ft | 11 kts | 105° |
| 2026-05-08 04:59 | 50.90560 | 4.48764 | 193 ft | 12 kts | 64° |
| 2026-05-08 04:59 | 50.90598 | 4.48891 | 194 ft | 13 kts | 65° |
| 2026-05-08 04:59 | 50.90633 | 4.49016 | 195 ft | 10 kts | 65° |
| 2026-05-08 04:59 | 50.90650 | 4.49126 | 184 ft | 11 kts | 111° |
| 2026-05-08 05:00 | 50.90583 | 4.49185 | 189 ft | 12 kts | 155° |
| 2026-05-08 05:00 | 50.90504 | 4.49244 | 193 ft | 13 kts | 155° |
| 2026-05-08 05:00 | 50.90421 | 4.49295 | 191 ft | 11 kts | 179° |
| 2026-05-08 05:00 | 50.90370 | 4.49201 | 193 ft | 12 kts | 245° |
| 2026-05-08 05:01 | 50.90332 | 4.49072 | 197 ft | 13 kts | 245° |
| 2026-05-08 05:01 | 50.90291 | 4.48932 | 197 ft | 15 kts | 245° |
| 2026-05-08 05:01 | 50.90262 | 4.48803 | 189 ft | 10 kts | 283° |
| 2026-05-08 05:01 | 50.90309 | 4.48757 | 185 ft | 5 kts | 337° |
| 2026-05-08 05:02 | 50.90326 | 4.48746 | 195 ft | 0 kts | 336° |